Time;durP1;ratioP1;P1;durP2;ratioP2;P2;SDS_P1;SDS_P2;PMS_P1;PMS_P2;Temp;Humidity;BMP_temperature;BMP_pressure;BME280_temperature;BME280_humidity;BME280_pressure;Samples;Min_cycle;Max_cycle;Signal;HPM_P1;HPM_P2
2022/08/13 00:01:56;;;;;;;8.50;4.78;;;;;;;;;;4404303;32;20206;-90
2022/08/13 00:04:23;;;;;;;9.57;4.80;;;;;;;;;;4403601;32;20229;-84
2022/08/13 00:07:06;;;;;;;5.53;4.65;;;;;;;;;;4401964;32;20266;-84
2022/08/13 00:09:33;;;;;;;7.90;4.85;;;;;;;;;;4390914;32;20299;-84
2022/08/13 00:14:46;;;;;;;7.20;4.57;;;;;;;;;;4403751;32;20358;-87
2022/08/13 00:17:14;;;;;;;5.85;4.85;;;;;;;;;;4402863;32;20197;-89
2022/08/13 00:19:43;;;;;;;5.43;4.55;;;;;;;;;;4404404;32;20256;-85
2022/08/13 00:22:10;;;;;;;11.05;5.37;;;;;;;;;;4404174;32;20295;-86
2022/08/13 00:24:38;;;;;;;13.43;5.60;;;;;;;;;;4403969;32;20427;-87
2022/08/13 00:27:05;;;;;;;7.93;5.68;;;;;;;;;;4403977;32;20198;-88
2022/08/13 00:29:31;;;;;;;11.00;7.37;;;;;;;;;;4402388;32;20861;-90
2022/08/13 00:31:56;;;;;;;10.40;7.97;;;;;;;;;;4403600;32;20186;-87
2022/08/13 00:34:23;;;;;;;9.98;8.27;;;;;;;;;;4403568;32;20294;-88
2022/08/13 00:36:48;;;;;;;11.43;7.12;;;;;;;;;;4403153;32;20206;-84
2022/08/13 00:39:14;;;;;;;8.90;6.65;;;;;;;;;;4403057;32;20537;-87
2022/08/13 00:41:45;;;;;;;10.52;6.28;;;;;;;;;;4403129;32;20202;-89
2022/08/13 00:44:17;;;;;;;7.05;5.87;;;;;;;;;;4402585;32;20201;-85
2022/08/13 00:46:44;;;;;;;13.62;5.20;;;;;;;;;;4403143;32;20194;-91
2022/08/13 00:49:12;;;;;;;13.48;5.87;;;;;;;;;;4403066;32;20253;-83
2022/08/13 00:51:40;;;;;;;8.20;4.90;;;;;;;;;;4403332;32;20590;-85
2022/08/13 00:54:08;;;;;;;9.70;5.78;;;;;;;;;;4401090;32;20356;-84
2022/08/13 00:56:35;;;;;;;15.80;5.65;;;;;;;;;;4402794;32;20237;-84
2022/08/13 00:59:07;;;;;;;7.37;5.78;;;;;;;;;;4402470;32;20214;-84
2022/08/13 01:01:35;;;;;;;13.88;7.82;;;;;;;;;;4402771;32;20193;-84
2022/08/13 01:04:03;;;;;;;9.90;7.05;;;;;;;;;;4401480;32;20236;-83
2022/08/13 01:06:32;;;;;;;7.40;6.70;;;;;;;;;;4403068;32;20328;-85
2022/08/13 01:08:59;;;;;;;11.18;5.75;;;;;;;;;;4402355;32;20260;-85
2022/08/13 01:11:27;;;;;;;5.97;5.37;;;;;;;;;;4407062;32;20263;-83
2022/08/13 01:13:53;;;;;;;9.02;5.30;;;;;;;;;;4417510;32;20217;-84
2022/08/13 01:16:20;;;;;;;11.82;5.65;;;;;;;;;;4417665;32;20278;-83
2022/08/13 01:18:50;;;;;;;10.43;6.45;;;;;;;;;;4418544;32;20328;-84
2022/08/13 01:21:18;;;;;;;7.03;5.53;;;;;;;;;;4406027;32;20707;-84
2022/08/13 01:23:49;;;;;;;13.07;5.43;;;;;;;;;;4403726;32;20240;-85
2022/08/13 01:26:17;;;;;;;9.93;6.10;;;;;;;;;;4403301;32;20252;-88
2022/08/13 01:28:44;;;;;;;12.55;5.62;;;;;;;;;;4402586;32;20236;-83
2022/08/13 01:31:13;;;;;;;11.98;6.22;;;;;;;;;;4402340;32;20244;-85
2022/08/13 01:33:40;;;;;;;8.55;5.10;;;;;;;;;;4400936;32;20259;-84
2022/08/13 01:36:07;;;;;;;6.95;5.87;;;;;;;;;;4401956;32;20237;-84
2022/08/13 01:38:36;;;;;;;5.78;5.10;;;;;;;;;;4402087;32;20795;-83
2022/08/13 01:41:02;;;;;;;10.25;5.68;;;;;;;;;;4401461;32;20225;-84
2022/08/13 01:43:30;;;;;;;6.62;5.72;;;;;;;;;;4401991;32;20209;-88
2022/08/13 01:46:00;;;;;;;9.85;6.45;;;;;;;;;;4401959;32;20350;-84
2022/08/13 01:51:21;;;;;;;9.40;6.30;;;;;;;;;;4401768;32;20279;-87
2022/08/13 01:53:54;;;;;;;9.00;5.35;;;;;;;;;;4401378;32;20271;-86
2022/08/13 01:56:22;;;;;;;12.43;6.10;;;;;;;;;;4401397;32;20305;-89
2022/08/13 01:58:52;;;;;;;12.68;6.07;;;;;;;;;;4401429;32;20209;-84
2022/08/13 02:01:18;;;;;;;6.20;5.45;;;;;;;;;;4401450;32;20259;-84
2022/08/13 02:03:48;;;;;;;9.65;6.47;;;;;;;;;;4401473;32;20217;-84
2022/08/13 02:06:25;;;;;;;9.25;6.37;;;;;;;;;;4400985;32;20568;-84
2022/08/13 02:08:58;;;;;;;8.65;5.60;;;;;;;;;;4401471;32;20260;-84
2022/08/13 02:11:24;;;;;;;7.07;4.68;;;;;;;;;;4400294;32;20570;-83
2022/08/13 02:13:52;;;;;;;6.85;6.00;;;;;;;;;;4401325;32;20557;-84
2022/08/13 02:16:18;;;;;;;6.85;6.15;;;;;;;;;;4401420;32;20237;-84
2022/08/13 02:18:45;;;;;;;7.40;5.45;;;;;;;;;;4401897;32;20251;-84
2022/08/13 02:21:11;;;;;;;10.02;5.50;;;;;;;;;;4401288;32;20233;-83
2022/08/13 02:23:37;;;;;;;7.25;5.53;;;;;;;;;;4401045;32;20873;-83
2022/08/13 02:26:07;;;;;;;9.70;5.35;;;;;;;;;;4401436;32;20268;-83
2022/08/13 02:28:39;;;;;;;9.30;5.78;;;;;;;;;;4399783;32;20551;-84
2022/08/13 02:31:06;;;;;;;7.75;6.07;;;;;;;;;;4399562;32;20629;-86
2022/08/13 02:33:35;;;;;;;8.80;5.00;;;;;;;;;;4401377;32;20263;-84
2022/08/13 02:36:01;;;;;;;8.25;5.20;;;;;;;;;;4401427;32;20234;-91
2022/08/13 02:38:26;;;;;;;7.05;6.07;;;;;;;;;;4400951;32;20261;-84
2022/08/13 02:43:36;;;;;;;8.98;5.10;;;;;;;;;;4401148;32;20295;-85
2022/08/13 02:46:03;;;;;;;9.30;5.70;;;;;;;;;;4401372;32;20213;-83
2022/08/13 02:48:29;;;;;;;5.43;4.93;;;;;;;;;;4401419;32;20293;-84
2022/08/13 02:50:56;;;;;;;6.20;5.60;;;;;;;;;;4401425;32;20214;-84
2022/08/13 02:53:23;;;;;;;7.18;5.65;;;;;;;;;;4400509;32;20254;-84
2022/08/13 02:55:49;;;;;;;6.85;6.15;;;;;;;;;;4401222;32;20210;-87
2022/08/13 02:58:16;;;;;;;5.90;5.40;;;;;;;;;;4400868;32;20316;-84
2022/08/13 03:00:48;;;;;;;9.20;5.78;;;;;;;;;;4401134;32;20214;-86
2022/08/13 03:03:15;;;;;;;9.73;6.28;;;;;;;;;;4400997;32;20264;-87
2022/08/13 03:05:45;;;;;;;7.47;6.22;;;;;;;;;;4401012;32;20271;-84
2022/08/13 03:08:11;;;;;;;7.60;6.43;;;;;;;;;;4399464;32;20283;-85
2022/08/13 03:10:38;;;;;;;5.72;4.90;;;;;;;;;;4400672;32;20598;-85
2022/08/13 03:13:15;;;;;;;5.50;4.62;;;;;;;;;;4400962;32;20380;-89
2022/08/13 03:15:43;;;;;;;6.90;5.43;;;;;;;;;;4402966;32;20201;-84
2022/08/13 03:18:09;;;;;;;7.05;5.93;;;;;;;;;;4403837;32;20280;-83
2022/08/13 03:20:35;;;;;;;6.57;4.90;;;;;;;;;;4403981;32;20314;-84
2022/08/13 03:23:01;;;;;;;7.05;4.93;;;;;;;;;;4403731;32;20664;-84
2022/08/13 03:25:28;;;;;;;10.82;5.40;;;;;;;;;;4404121;32;20634;-85
2022/08/13 03:27:54;;;;;;;5.85;5.28;;;;;;;;;;4403704;32;20279;-84
2022/08/13 03:30:23;;;;;;;6.03;4.80;;;;;;;;;;4402624;32;20214;-85
2022/08/13 03:32:52;;;;;;;5.85;5.10;;;;;;;;;;4403579;32;20309;-84
2022/08/13 03:35:22;;;;;;;6.25;4.97;;;;;;;;;;4403531;32;20233;-84
2022/08/13 03:37:53;;;;;;;8.98;5.60;;;;;;;;;;4403163;32;20551;-85
2022/08/13 03:40:20;;;;;;;8.80;5.30;;;;;;;;;;4392127;32;20238;-84
2022/08/13 03:42:48;;;;;;;7.70;5.18;;;;;;;;;;4388805;32;20339;-86
2022/08/13 03:45:15;;;;;;;7.75;5.78;;;;;;;;;;4388832;32;20294;-84
2022/08/13 03:47:45;;;;;;;5.87;5.28;;;;;;;;;;4387141;32;20264;-83
2022/08/13 03:50:12;;;;;;;7.15;6.05;;;;;;;;;;4387384;32;20234;-82
2022/08/13 03:52:38;;;;;;;11.60;6.28;;;;;;;;;;4395914;32;20233;-83
2022/08/13 03:55:09;;;;;;;10.00;5.80;;;;;;;;;;4403655;32;20702;-85
2022/08/13 03:57:40;;;;;;;10.55;5.72;;;;;;;;;;4403313;32;20229;-84
2022/08/13 04:00:11;;;;;;;11.38;6.50;;;;;;;;;;4402849;32;20276;-83
2022/08/13 04:02:40;;;;;;;8.65;6.07;;;;;;;;;;4403152;32;20650;-83
2022/08/13 04:05:11;;;;;;;17.70;5.87;;;;;;;;;;4403128;32;20757;-83
2022/08/13 04:07:36;;;;;;;8.85;6.65;;;;;;;;;;4402162;32;20395;-87
2022/08/13 04:10:04;;;;;;;10.60;5.93;;;;;;;;;;4402513;32;20279;-84
2022/08/13 04:12:30;;;;;;;11.88;6.20;;;;;;;;;;4402149;32;20260;-84
2022/08/13 04:14:55;;;;;;;6.57;5.82;;;;;;;;;;4400200;32;20951;-84
2022/08/13 04:17:21;;;;;;;9.55;5.90;;;;;;;;;;4401542;32;20233;-83
2022/08/13 04:19:46;;;;;;;10.32;5.93;;;;;;;;;;4401599;32;20908;-85
2022/08/13 04:22:13;;;;;;;9.88;6.25;;;;;;;;;;4404613;32;20247;-85
2022/08/13 04:24:39;;;;;;;8.25;5.95;;;;;;;;;;4402142;32;20809;-85
2022/08/13 04:27:05;;;;;;;7.18;6.12;;;;;;;;;;4399996;32;20690;-84
2022/08/13 04:29:32;;;;;;;7.10;6.40;;;;;;;;;;4400462;32;20248;-84
2022/08/13 04:31:59;;;;;;;7.60;6.72;;;;;;;;;;4401464;32;20234;-84
2022/08/13 04:34:27;;;;;;;10.05;6.60;;;;;;;;;;4401585;32;20456;-84
2022/08/13 04:36:53;;;;;;;7.03;6.35;;;;;;;;;;4400005;32;20245;-84
2022/08/13 04:39:19;;;;;;;9.18;6.68;;;;;;;;;;4401340;32;20296;-84
2022/08/13 04:41:45;;;;;;;15.10;6.85;;;;;;;;;;4401234;32;20233;-84
2022/08/13 04:44:10;;;;;;;9.82;6.80;;;;;;;;;;4401440;32;20243;-85
2022/08/13 04:46:37;;;;;;;7.40;6.60;;;;;;;;;;4401343;32;20658;-84
2022/08/13 04:49:03;;;;;;;14.50;7.90;;;;;;;;;;4401724;32;20295;-86
2022/08/13 04:51:32;;;;;;;8.82;7.20;;;;;;;;;;4401119;32;20666;-87
2022/08/13 04:53:57;;;;;;;8.98;6.45;;;;;;;;;;4401065;32;20202;-84
2022/08/13 04:56:23;;;;;;;9.35;6.78;;;;;;;;;;4401069;32;20257;-84
2022/08/13 04:58:48;;;;;;;16.10;6.32;;;;;;;;;;4401380;32;20284;-84
2022/08/13 05:01:14;;;;;;;12.27;7.10;;;;;;;;;;4400108;32;20244;-89
2022/08/13 05:03:47;;;;;;;10.20;7.18;;;;;;;;;;4400019;32;20590;-82
2022/08/13 05:06:19;;;;;;;7.82;6.72;;;;;;;;;;4400913;32;20217;-83
2022/08/13 05:08:48;;;;;;;14.55;7.45;;;;;;;;;;4400681;32;20280;-82
2022/08/13 05:11:15;;;;;;;8.88;7.95;;;;;;;;;;4397592;32;21159;-88
2022/08/13 05:13:43;;;;;;;11.57;7.50;;;;;;;;;;4397945;32;20326;-83
2022/08/13 05:16:15;;;;;;;15.50;7.28;;;;;;;;;;4400106;32;20578;-83
2022/08/13 05:18:45;;;;;;;10.60;7.72;;;;;;;;;;4397226;32;20283;-84
2022/08/13 05:21:11;;;;;;;9.27;8.30;;;;;;;;;;4399304;32;20305;-85
2022/08/13 05:23:39;;;;;;;10.20;7.93;;;;;;;;;;4399039;32;20257;-83
2022/08/13 05:26:06;;;;;;;11.05;7.68;;;;;;;;;;4400804;32;20286;-83
2022/08/13 05:28:31;;;;;;;17.27;8.45;;;;;;;;;;4400855;32;20618;-82
2022/08/13 05:30:57;;;;;;;11.65;7.97;;;;;;;;;;4400013;32;20237;-88
2022/08/13 05:33:26;;;;;;;13.57;7.82;;;;;;;;;;4400490;32;20294;-84
2022/08/13 05:35:55;;;;;;;10.07;8.55;;;;;;;;;;4399175;32;20263;-85
2022/08/13 05:38:22;;;;;;;9.38;8.43;;;;;;;;;;4399697;32;20252;-84
2022/08/13 05:41:04;;;;;;;10.98;7.40;;;;;;;;;;4399203;32;20240;-84
2022/08/13 05:43:33;;;;;;;8.98;7.87;;;;;;;;;;4400690;32;20286;-83
2022/08/13 05:46:02;;;;;;;12.45;9.10;;;;;;;;;;4400747;32;20293;-84
2022/08/13 05:48:43;;;;;;;9.77;8.32;;;;;;;;;;4399791;32;20792;-84
2022/08/13 05:51:13;;;;;;;14.60;8.73;;;;;;;;;;4400416;32;20689;-82
2022/08/13 05:53:38;;;;;;;12.43;9.00;;;;;;;;;;4399257;32;20339;-84
2022/08/13 05:56:08;;;;;;;11.38;8.82;;;;;;;;;;4399693;32;20232;-87
2022/08/13 05:58:34;;;;;;;10.75;8.45;;;;;;;;;;4386811;32;20393;-85
2022/08/13 06:03:44;;;;;;;10.88;9.77;;;;;;;;;;4401005;32;20344;-83
2022/08/13 06:06:12;;;;;;;9.40;8.50;;;;;;;;;;4399943;32;20442;-83
2022/08/13 06:08:42;;;;;;;13.50;10.57;;;;;;;;;;4400300;32;20313;-84
2022/08/13 06:11:11;;;;;;;15.07;9.90;;;;;;;;;;4398755;32;20305;-84
2022/08/13 06:13:40;;;;;;;12.27;9.88;;;;;;;;;;4399225;32;20357;-86
2022/08/13 06:16:09;;;;;;;10.20;9.15;;;;;;;;;;4400262;32;20304;-83
2022/08/13 06:18:37;;;;;;;12.55;8.82;;;;;;;;;;4399511;32;20246;-84
2022/08/13 06:21:08;;;;;;;14.52;7.65;;;;;;;;;;4401139;32;20209;-85
2022/08/13 06:23:36;;;;;;;10.18;8.75;;;;;;;;;;4399159;32;20324;-84
2022/08/13 06:26:03;;;;;;;12.85;8.55;;;;;;;;;;4398907;32;20642;-85
2022/08/13 06:28:31;;;;;;;12.70;8.80;;;;;;;;;;4401239;32;20297;-85
2022/08/13 06:31:00;;;;;;;11.90;8.00;;;;;;;;;;4400224;32;20379;-83
2022/08/13 06:33:31;;;;;;;9.90;8.68;;;;;;;;;;4400456;32;20246;-84
2022/08/13 06:36:09;;;;;;;9.57;8.25;;;;;;;;;;4400069;32;20308;-86
2022/08/13 06:38:41;;;;;;;17.70;9.10;;;;;;;;;;4399787;32;20772;-87
2022/08/13 06:41:07;;;;;;;19.10;10.68;;;;;;;;;;4400820;32;20350;-84
2022/08/13 06:43:43;;;;;;;10.38;9.32;;;;;;;;;;4399389;32;20263;-85
2022/08/13 06:46:11;;;;;;;9.68;8.18;;;;;;;;;;4401040;32;20221;-85
2022/08/13 06:48:39;;;;;;;14.23;8.43;;;;;;;;;;4399643;32;20249;-81
2022/08/13 06:51:07;;;;;;;9.45;8.40;;;;;;;;;;4401060;32;20268;-85
2022/08/13 06:53:39;;;;;;;33.65;24.80;;;;;;;;;;4400588;32;20225;-86
2022/08/13 06:56:11;;;;;;;11.68;9.65;;;;;;;;;;4398984;32;20210;-84
2022/08/13 06:58:38;;;;;;;11.15;8.70;;;;;;;;;;4400418;32;20241;-83
2022/08/13 07:01:03;;;;;;;8.52;6.97;;;;;;;;;;4400677;32;20573;-83
2022/08/13 07:03:31;;;;;;;16.87;11.38;;;;;;;;;;4400470;32;20257;-83
2022/08/13 07:05:58;;;;;;;8.50;7.62;;;;;;;;;;4399743;32;20232;-83
2022/08/13 07:08:27;;;;;;;12.32;7.70;;;;;;;;;;4400267;32;20257;-81
2022/08/13 07:13:40;;;;;;;9.25;7.22;;;;;;;;;;4399991;32;20264;-84
2022/08/13 07:16:09;;;;;;;10.15;8.50;;;;;;;;;;4399978;32;20305;-81
2022/08/13 07:18:35;;;;;;;11.23;8.20;;;;;;;;;;4400437;32;20690;-86
2022/08/13 07:21:04;;;;;;;14.68;8.40;;;;;;;;;;4399753;32;20256;-83
2022/08/13 07:23:30;;;;;;;9.52;7.53;;;;;;;;;;4399711;32;20353;-84
2022/08/13 07:26:00;;;;;;;19.08;9.45;;;;;;;;;;4400315;32;20359;-82
2022/08/13 07:28:30;;;;;;;16.55;8.90;;;;;;;;;;4399623;32;20280;-82
2022/08/13 07:30:56;;;;;;;9.90;8.13;;;;;;;;;;4400098;32;20378;-83
2022/08/13 07:33:22;;;;;;;12.30;8.38;;;;;;;;;;4400150;32;20209;-83
2022/08/13 07:35:47;;;;;;;8.25;7.30;;;;;;;;;;4399803;32;20245;-82
2022/08/13 07:38:13;;;;;;;9.43;7.40;;;;;;;;;;4399699;32;20274;-83
2022/08/13 07:40:41;;;;;;;16.75;8.15;;;;;;;;;;4399525;32;20588;-82
2022/08/13 07:43:09;;;;;;;8.70;7.18;;;;;;;;;;4398676;32;20255;-83
2022/08/13 07:45:35;;;;;;;9.48;8.52;;;;;;;;;;4399734;32;20244;-81
2022/08/13 07:48:02;;;;;;;11.85;7.90;;;;;;;;;;4400321;32;20559;-81
2022/08/13 07:50:29;;;;;;;10.98;8.02;;;;;;;;;;4399619;32;20411;-81
2022/08/13 07:52:57;;;;;;;12.40;8.82;;;;;;;;;;4397773;32;20233;-82
2022/08/13 07:55:29;;;;;;;12.15;8.07;;;;;;;;;;4399159;32;20229;-83
2022/08/13 07:57:55;;;;;;;11.20;8.02;;;;;;;;;;4399928;32;20206;-82
2022/08/13 08:00:24;;;;;;;17.02;9.40;;;;;;;;;;4400371;32;20252;-84
2022/08/13 08:03:01;;;;;;;11.82;8.73;;;;;;;;;;4403133;32;20217;-80
2022/08/13 08:05:31;;;;;;;10.38;9.00;;;;;;;;;;4402961;32;20267;-81
2022/08/13 08:07:58;;;;;;;12.60;9.45;;;;;;;;;;4402379;32;20217;-83
2022/08/13 08:10:24;;;;;;;11.90;8.35;;;;;;;;;;4402529;32;20284;-82
2022/08/13 08:12:50;;;;;;;10.63;9.52;;;;;;;;;;4402469;32;20221;-84
2022/08/13 08:15:16;;;;;;;10.52;9.23;;;;;;;;;;4402802;32;20369;-81
2022/08/13 08:17:42;;;;;;;14.05;8.25;;;;;;;;;;4403128;32;20916;-80
2022/08/13 08:20:09;;;;;;;12.23;8.23;;;;;;;;;;4402382;32;20368;-81
2022/08/13 08:22:37;;;;;;;10.38;8.52;;;;;;;;;;4402181;32;20805;-83
2022/08/13 08:25:03;;;;;;;17.12;9.30;;;;;;;;;;4402487;32;20626;-82
2022/08/13 08:27:32;;;;;;;9.48;8.57;;;;;;;;;;4402046;32;20248;-80
2022/08/13 08:30:00;;;;;;;9.90;8.82;;;;;;;;;;4402223;32;20239;-81
2022/08/13 08:32:26;;;;;;;15.23;9.07;;;;;;;;;;4402490;32;20320;-82
2022/08/13 08:34:53;;;;;;;10.98;9.82;;;;;;;;;;4402217;32;20225;-83
2022/08/13 08:43:00;;;;;;;13.85;9.48;;;;;;;;;;4402185;32;20291;-83
2022/08/13 08:45:28;;;;;;;15.30;10.13;;;;;;;;;;4400724;32;20810;-82
2022/08/13 08:47:54;;;;;;;12.60;9.50;;;;;;;;;;4404580;32;20252;-80
2022/08/13 08:50:24;;;;;;;12.23;10.45;;;;;;;;;;4407020;32;20213;-80
2022/08/13 08:55:37;;;;;;;9.85;8.85;;;;;;;;;;4406750;32;20338;-82
2022/08/13 08:58:05;;;;;;;10.73;9.63;;;;;;;;;;4401869;32;20685;-83
2022/08/13 09:00:33;;;;;;;12.02;10.45;;;;;;;;;;4402305;32;20223;-81
2022/08/13 09:03:00;;;;;;;11.98;10.35;;;;;;;;;;4402861;32;20232;-82
2022/08/13 09:05:26;;;;;;;14.10;10.98;;;;;;;;;;4402968;32;20299;-81
2022/08/13 09:07:53;;;;;;;12.85;10.80;;;;;;;;;;4402698;32;20527;-85
2022/08/13 09:10:22;;;;;;;14.70;12.18;;;;;;;;;;4402709;32;20228;-80
2022/08/13 09:12:50;;;;;;;11.18;9.73;;;;;;;;;;4400971;32;20276;-81
2022/08/13 09:15:21;;;;;;;11.48;9.73;;;;;;;;;;4401958;32;20277;-80
2022/08/13 09:17:50;;;;;;;15.02;9.48;;;;;;;;;;4401096;32;20321;-80
2022/08/13 09:20:19;;;;;;;10.65;9.02;;;;;;;;;;4400768;32;20734;-82
2022/08/13 09:22:48;;;;;;;9.55;8.55;;;;;;;;;;4401763;32;20226;-85
2022/08/13 09:25:16;;;;;;;10.98;8.85;;;;;;;;;;4402047;32;20351;-85
2022/08/13 09:27:43;;;;;;;13.32;10.18;;;;;;;;;;4402235;32;20226;-85
2022/08/13 09:30:11;;;;;;;15.48;10.25;;;;;;;;;;4402530;32;20277;-83
2022/08/13 09:32:37;;;;;;;13.45;9.10;;;;;;;;;;4400663;32;20331;-86
2022/08/13 09:35:07;;;;;;;12.73;9.05;;;;;;;;;;4403171;32;20248;-86
2022/08/13 09:37:33;;;;;;;10.93;8.20;;;;;;;;;;4400893;32;20304;-86
2022/08/13 09:40:12;;;;;;;11.15;8.60;;;;;;;;;;4401473;32;20615;-86
2022/08/13 09:42:57;;;;;;;13.05;7.82;;;;;;;;;;4400806;32;20237;-84
2022/08/13 09:45:25;;;;;;;8.70;7.15;;;;;;;;;;4401612;32;20312;-86
2022/08/13 09:47:56;;;;;;;8.48;7.60;;;;;;;;;;4399373;32;20669;-88
2022/08/13 09:50:24;;;;;;;7.78;6.90;;;;;;;;;;4401553;32;20702;-84
2022/08/13 09:52:52;;;;;;;9.20;7.40;;;;;;;;;;4400638;32;20294;-84
2022/08/13 09:55:24;;;;;;;7.60;6.80;;;;;;;;;;4399729;32;20230;-82
2022/08/13 09:57:52;;;;;;;7.72;6.95;;;;;;;;;;4400803;32;20193;-83
2022/08/13 10:00:24;;;;;;;10.60;7.43;;;;;;;;;;4401688;32;20371;-83
2022/08/13 10:02:54;;;;;;;9.63;7.55;;;;;;;;;;4401535;32;20214;-83
2022/08/13 10:05:20;;;;;;;8.50;6.85;;;;;;;;;;4401779;32;20241;-85
2022/08/13 10:07:47;;;;;;;7.32;6.62;;;;;;;;;;4400919;32;20272;-84
2022/08/13 10:10:15;;;;;;;8.13;6.97;;;;;;;;;;4401192;32;20609;-86
2022/08/13 10:12:42;;;;;;;8.55;7.00;;;;;;;;;;4387686;32;20255;-83
2022/08/13 10:15:09;;;;;;;10.55;6.95;;;;;;;;;;4401437;32;20331;-86
2022/08/13 10:17:55;;;;;;;10.35;6.80;;;;;;;;;;4401572;32;20251;-88
2022/08/13 10:20:29;;;;;;;9.35;6.80;;;;;;;;;;4401188;32;20232;-85
2022/08/13 10:22:57;;;;;;;9.73;6.87;;;;;;;;;;4399720;32;20652;-84
2022/08/13 10:25:24;;;;;;;8.70;6.78;;;;;;;;;;4401005;32;20555;-85
2022/08/13 10:27:50;;;;;;;8.77;6.43;;;;;;;;;;4399423;32;20292;-85
2022/08/13 10:30:18;;;;;;;6.95;6.12;;;;;;;;;;4400629;32;20315;-84
2022/08/13 10:32:46;;;;;;;10.98;6.18;;;;;;;;;;4401448;32;20206;-85
2022/08/13 10:35:17;;;;;;;7.00;6.20;;;;;;;;;;4400545;32;20282;-87
2022/08/13 10:37:45;;;;;;;6.57;5.87;;;;;;;;;;4400636;32;20286;-86
2022/08/13 10:40:13;;;;;;;10.25;6.55;;;;;;;;;;4394376;32;20798;-86
2022/08/13 10:42:39;;;;;;;8.45;6.25;;;;;;;;;;4400835;32;20243;-86
2022/08/13 10:45:05;;;;;;;7.00;6.30;;;;;;;;;;4400764;32;20229;-87
2022/08/13 10:47:31;;;;;;;8.20;6.93;;;;;;;;;;4400976;32;20260;-88
2022/08/13 10:49:58;;;;;;;9.05;6.95;;;;;;;;;;4401148;32;20229;-85
2022/08/13 10:52:24;;;;;;;11.25;7.32;;;;;;;;;;4398831;32;20290;-86
2022/08/13 10:54:49;;;;;;;7.10;6.40;;;;;;;;;;4400948;32;20286;-85
2022/08/13 10:57:15;;;;;;;7.72;6.93;;;;;;;;;;4399962;32;20753;-86
2022/08/13 10:59:43;;;;;;;11.77;7.03;;;;;;;;;;4399077;32;20300;-86
2022/08/13 11:02:10;;;;;;;7.18;6.37;;;;;;;;;;4401460;32;20233;-88
2022/08/13 11:04:36;;;;;;;6.95;5.95;;;;;;;;;;4401294;32;20563;-83
2022/08/13 11:07:04;;;;;;;7.47;6.00;;;;;;;;;;4401049;32;20279;-87
2022/08/13 11:09:30;;;;;;;7.53;6.55;;;;;;;;;;4400641;32;20249;-85
2022/08/13 11:12:00;;;;;;;7.72;6.43;;;;;;;;;;4400587;32;20345;-86
2022/08/13 11:14:29;;;;;;;9.30;7.75;;;;;;;;;;4400669;32;20257;-86
2022/08/13 11:19:25;;;;;;;9.05;7.12;;;;;;;;;;4401231;32;20224;-85
2022/08/13 11:21:51;;;;;;;14.07;6.97;;;;;;;;;;4387791;32;20253;-85
2022/08/13 11:24:18;;;;;;;16.77;7.03;;;;;;;;;;4400983;32;20252;-86
2022/08/13 11:26:45;;;;;;;6.25;5.65;;;;;;;;;;4400222;32;20209;-85
2022/08/13 11:29:11;;;;;;;6.65;5.97;;;;;;;;;;4400620;32;20227;-85
2022/08/13 11:31:37;;;;;;;14.50;6.20;;;;;;;;;;4401108;32;20234;-84
2022/08/13 11:34:03;;;;;;;6.80;6.15;;;;;;;;;;4400598;32;20228;-83
2022/08/13 11:36:29;;;;;;;6.10;5.50;;;;;;;;;;4400292;32;20249;-83
2022/08/13 11:38:55;;;;;;;10.15;5.93;;;;;;;;;;4401700;32;20225;-80
2022/08/13 11:41:22;;;;;;;8.40;5.82;;;;;;;;;;4403595;32;20973;-87
2022/08/13 11:43:49;;;;;;;8.02;5.22;;;;;;;;;;4403912;32;20230;-82
2022/08/13 11:46:15;;;;;;;15.43;6.35;;;;;;;;;;4402973;32;20222;-84
2022/08/13 11:48:45;;;;;;;6.97;5.70;;;;;;;;;;4403972;32;20197;-85
2022/08/13 11:51:11;;;;;;;6.28;5.37;;;;;;;;;;4402111;32;20260;-89
2022/08/13 11:53:36;;;;;;;8.10;5.85;;;;;;;;;;4403209;32;20352;-85
2022/08/13 11:56:02;;;;;;;8.50;5.72;;;;;;;;;;4403172;32;20269;-85
2022/08/13 11:58:28;;;;;;;7.07;5.50;;;;;;;;;;4402225;32;20260;-85
2022/08/13 12:00:54;;;;;;;6.55;5.85;;;;;;;;;;4403707;32;20303;-84
2022/08/13 12:03:20;;;;;;;7.75;6.22;;;;;;;;;;4403556;32;20206;-84
2022/08/13 12:05:45;;;;;;;7.47;6.35;;;;;;;;;;4402633;32;20695;-82
2022/08/13 12:08:15;;;;;;;12.85;7.00;;;;;;;;;;4402582;32;20202;-82
2022/08/13 12:10:41;;;;;;;7.60;5.93;;;;;;;;;;4401238;32;20229;-82
2022/08/13 12:13:06;;;;;;;7.57;6.30;;;;;;;;;;4401186;32;20793;-80
2022/08/13 12:15:32;;;;;;;9.10;6.25;;;;;;;;;;4401408;32;20233;-82
2022/08/13 12:17:57;;;;;;;10.57;6.53;;;;;;;;;;4401020;32;20689;-81
2022/08/13 12:20:25;;;;;;;10.38;7.25;;;;;;;;;;4400535;32;20516;-80
2022/08/13 12:22:53;;;;;;;7.35;5.95;;;;;;;;;;4400782;32;20252;-81
2022/08/13 12:25:24;;;;;;;7.37;6.57;;;;;;;;;;4399941;32;20364;-81
2022/08/13 12:27:49;;;;;;;8.05;6.45;;;;;;;;;;4400773;32;20283;-81
2022/08/13 12:30:15;;;;;;;7.50;6.68;;;;;;;;;;4399909;32;20226;-80
2022/08/13 12:32:40;;;;;;;7.12;6.47;;;;;;;;;;4401198;32;20230;-80
2022/08/13 12:35:08;;;;;;;8.77;7.12;;;;;;;;;;4400827;32;20712;-80
2022/08/13 12:37:33;;;;;;;14.90;8.32;;;;;;;;;;4401214;32;20259;-80
2022/08/13 12:39:59;;;;;;;7.78;6.82;;;;;;;;;;4400910;32;20217;-80
2022/08/13 12:42:26;;;;;;;7.85;7.05;;;;;;;;;;4402745;32;20226;-80
2022/08/13 12:44:53;;;;;;;7.18;6.47;;;;;;;;;;4402687;32;20221;-83
2022/08/13 12:47:19;;;;;;;8.57;7.20;;;;;;;;;;4402735;32;20240;-80
2022/08/13 12:49:44;;;;;;;7.20;6.22;;;;;;;;;;4401076;32;20229;-80
2022/08/13 12:52:10;;;;;;;11.00;6.35;;;;;;;;;;4402392;32;20210;-79
2022/08/13 12:54:44;;;;;;;6.80;6.20;;;;;;;;;;4402193;32;20384;-79
2022/08/13 12:57:09;;;;;;;9.27;5.90;;;;;;;;;;4402248;32;20216;-80
2022/08/13 12:59:35;;;;;;;8.63;6.53;;;;;;;;;;4400591;32;20551;-82
2022/08/13 13:02:02;;;;;;;9.98;6.18;;;;;;;;;;4401105;32;20678;-80
2022/08/13 13:04:27;;;;;;;9.68;5.80;;;;;;;;;;4401917;32;20686;-80
2022/08/13 13:06:53;;;;;;;6.68;6.07;;;;;;;;;;4401549;32;20224;-81
2022/08/13 13:09:19;;;;;;;6.03;5.45;;;;;;;;;;4402029;32;20325;-80
2022/08/13 13:11:46;;;;;;;6.03;5.43;;;;;;;;;;4401757;32;20234;-80
2022/08/13 13:14:11;;;;;;;6.78;5.45;;;;;;;;;;4402116;32;20590;-80
2022/08/13 13:16:40;;;;;;;6.22;5.28;;;;;;;;;;4401845;32;20273;-80
2022/08/13 13:19:09;;;;;;;6.40;4.93;;;;;;;;;;4402230;32;20319;-80
2022/08/13 13:21:37;;;;;;;7.70;5.80;;;;;;;;;;4401426;32;20750;-80
2022/08/13 13:24:04;;;;;;;6.68;5.43;;;;;;;;;;4401693;32;20843;-81
2022/08/13 13:26:30;;;;;;;6.37;5.10;;;;;;;;;;4401705;32;20254;-81
2022/08/13 13:28:56;;;;;;;6.97;5.40;;;;;;;;;;4401209;32;20300;-81
2022/08/13 13:31:23;;;;;;;6.50;4.93;;;;;;;;;;4401685;32;20271;-80
2022/08/13 13:33:49;;;;;;;6.18;5.68;;;;;;;;;;4401638;32;20652;-81
2022/08/13 13:36:15;;;;;;;9.05;5.65;;;;;;;;;;4399819;32;20306;-80
2022/08/13 13:38:41;;;;;;;5.47;4.97;;;;;;;;;;4401310;32;20603;-80
2022/08/13 13:41:07;;;;;;;5.70;5.20;;;;;;;;;;4401310;32;20248;-80
2022/08/13 13:43:33;;;;;;;6.87;5.32;;;;;;;;;;4401350;32;20205;-79
2022/08/13 13:45:59;;;;;;;5.00;4.50;;;;;;;;;;4401282;32;20220;-80
2022/08/13 13:48:28;;;;;;;5.82;5.18;;;;;;;;;;4401312;32;20237;-79
2022/08/13 13:50:57;;;;;;;4.62;4.18;;;;;;;;;;4401096;32;20225;-78
2022/08/13 13:53:28;;;;;;;9.98;5.87;;;;;;;;;;4401091;32;20228;-80
2022/08/13 13:55:56;;;;;;;5.87;4.82;;;;;;;;;;4385059;32;20268;-80
2022/08/13 13:58:23;;;;;;;7.22;6.22;;;;;;;;;;4385879;32;20268;-82
2022/08/13 14:00:50;;;;;;;6.15;5.30;;;;;;;;;;4384922;32;20305;-80
2022/08/13 14:03:16;;;;;;;5.90;5.30;;;;;;;;;;4385163;32;20341;-82
2022/08/13 14:05:44;;;;;;;7.00;4.93;;;;;;;;;;4386108;32;20221;-82
2022/08/13 14:08:10;;;;;;;6.60;5.10;;;;;;;;;;4386217;32;20202;-80
2022/08/13 14:10:37;;;;;;;7.07;5.25;;;;;;;;;;4384895;32;20321;-82
2022/08/13 14:13:04;;;;;;;8.90;5.28;;;;;;;;;;4386046;32;20206;-82
2022/08/13 14:15:35;;;;;;;7.75;5.03;;;;;;;;;;4386151;32;20213;-80
2022/08/13 14:18:04;;;;;;;5.43;4.05;;;;;;;;;;4386168;32;20254;-82
2022/08/13 14:20:33;;;;;;;5.50;4.97;;;;;;;;;;4386601;32;20224;-82
2022/08/13 14:22:59;;;;;;;6.85;5.00;;;;;;;;;;4401036;32;20226;-81
2022/08/13 14:25:24;;;;;;;8.52;6.00;;;;;;;;;;4400704;32;20224;-80
2022/08/13 14:27:50;;;;;;;8.27;5.72;;;;;;;;;;4399749;32;20234;-82
2022/08/13 14:30:16;;;;;;;11.12;5.68;;;;;;;;;;4401273;32;20411;-82
2022/08/13 14:32:42;;;;;;;7.75;5.65;;;;;;;;;;4401732;32;20280;-85
2022/08/13 14:35:10;;;;;;;6.15;5.55;;;;;;;;;;4400701;32;20317;-84
2022/08/13 14:37:38;;;;;;;7.40;5.82;;;;;;;;;;4400917;32;20304;-83
2022/08/13 14:40:08;;;;;;;9.00;6.03;;;;;;;;;;4400909;32;20257;-82
2022/08/13 14:42:44;;;;;;;11.32;5.50;;;;;;;;;;4400932;32;21066;-85
2022/08/13 14:47:56;;;;;;;8.48;6.57;;;;;;;;;;4401169;32;20240;-86
2022/08/13 14:50:23;;;;;;;6.97;6.30;;;;;;;;;;4400130;32;20233;-83
2022/08/13 14:52:49;;;;;;;10.30;7.20;;;;;;;;;;4400514;32;20422;-84
2022/08/13 14:55:20;;;;;;;11.98;7.28;;;;;;;;;;4399769;32;20209;-83
2022/08/13 14:57:46;;;;;;;8.32;7.00;;;;;;;;;;4401054;32;20316;-85
2022/08/13 15:00:13;;;;;;;13.82;6.93;;;;;;;;;;4400969;32;20281;-81
2022/08/13 15:02:40;;;;;;;13.93;7.20;;;;;;;;;;4401051;32;20221;-81
2022/08/13 15:05:08;;;;;;;9.13;6.70;;;;;;;;;;4399597;32;20322;-87
2022/08/13 15:07:34;;;;;;;8.60;7.65;;;;;;;;;;4399373;32;20229;-87
2022/08/13 15:10:03;;;;;;;11.70;7.95;;;;;;;;;;4400015;32;20221;-82